createdAt,value
2018-08-20T00:03:53.710Z,25.12
2018-08-20T00:06:22.248Z,25.04
2018-08-20T00:08:50.461Z,25.10
2018-08-20T00:11:18.631Z,25.22
2018-08-20T00:13:47.560Z,25.01
2018-08-20T00:16:15.726Z,25.02
2018-08-20T00:18:43.781Z,25.00
2018-08-20T00:21:11.859Z,25.08
2018-08-20T00:23:40.036Z,24.89
2018-08-20T00:26:08.211Z,24.63
2018-08-20T00:28:36.385Z,24.56
2018-08-20T00:31:04.733Z,24.53
2018-08-20T00:33:32.872Z,24.55
2018-08-20T00:36:01.023Z,24.60
2018-08-20T00:38:29.158Z,24.83
2018-08-20T00:40:57.311Z,24.74
2018-08-20T00:43:25.656Z,24.79
2018-08-20T00:45:53.934Z,24.50
2018-08-20T00:48:22.012Z,24.42
2018-08-20T00:50:50.095Z,24.44
2018-08-20T00:53:18.221Z,24.24
2018-08-20T00:55:46.324Z,24.23
2018-08-20T00:58:14.991Z,24.47
2018-08-20T01:00:43.300Z,24.41
2018-08-20T01:03:11.456Z,24.27
2018-08-20T01:05:39.561Z,24.26
2018-08-20T01:08:09.987Z,24.02
2018-08-20T01:10:38.085Z,24.43
2018-08-20T01:13:06.436Z,24.36
2018-08-20T01:15:36.214Z,24.39
2018-08-20T01:18:04.340Z,24.10
2018-08-20T01:20:33.755Z,24.31
2018-08-20T01:23:01.879Z,24.39
2018-08-20T01:25:30.581Z,24.17
2018-08-20T01:27:58.692Z,24.45
2018-08-20T01:30:26.831Z,24.29
2018-08-20T01:33:03.299Z,24.09
2018-08-20T01:35:32.087Z,23.98
2018-08-20T01:38:00.519Z,23.96
2018-08-20T01:40:29.484Z,23.90
2018-08-20T01:42:57.574Z,23.91
2018-08-20T01:45:26.212Z,23.92
2018-08-20T01:47:54.971Z,24.02
2018-08-20T01:50:23.596Z,23.99
2018-08-20T01:52:51.892Z,23.99
2018-08-20T01:55:20.050Z,23.91
2018-08-20T01:57:48.253Z,23.90
2018-08-20T02:00:16.382Z,23.64
2018-08-20T02:02:48.691Z,23.65
2018-08-20T02:05:16.777Z,23.77
2018-08-20T02:07:44.913Z,23.66
2018-08-20T02:10:13.015Z,23.98
2018-08-20T02:12:41.872Z,23.97
2018-08-20T02:15:09.983Z,23.77
2018-08-20T02:17:38.804Z,23.56
2018-08-20T02:20:06.950Z,23.79
2018-08-20T02:22:35.351Z,23.63
2018-08-20T02:25:03.412Z,23.78
2018-08-20T02:27:31.685Z,23.96
2018-08-20T02:30:00.147Z,24.04
2018-08-20T02:32:28.220Z,23.98
2018-08-20T02:34:56.299Z,23.73
2018-08-20T02:37:30.580Z,23.70
2018-08-20T02:39:59.601Z,23.59
2018-08-20T02:42:27.722Z,23.42
2018-08-20T02:44:55.824Z,23.42
2018-08-20T02:47:23.919Z,23.70
2018-08-20T02:49:52.025Z,23.76
2018-08-20T02:52:20.115Z,23.78
2018-08-20T02:54:49.197Z,23.60
2018-08-20T02:57:17.336Z,23.39
2018-08-20T02:59:45.948Z,23.41
2018-08-20T03:02:14.049Z,23.64
2018-08-20T03:04:42.125Z,23.50
2018-08-20T03:07:10.838Z,23.51
2018-08-20T03:09:39.044Z,23.37
2018-08-20T03:12:07.222Z,23.13
2018-08-20T03:14:35.555Z,23.25
2018-08-20T03:17:03.689Z,23.13
2018-08-20T03:19:31.879Z,23.07
2018-08-20T03:22:00.286Z,22.98
2018-08-20T03:24:28.407Z,23.09
2018-08-20T03:26:56.539Z,22.94
2018-08-20T03:29:24.632Z,23.09
2018-08-20T03:31:52.843Z,23.01
2018-08-20T03:34:20.945Z,22.89
2018-08-20T03:36:49.148Z,22.92
2018-08-20T03:39:18.923Z,22.86
2018-08-20T03:41:47.135Z,22.88
2018-08-20T03:44:15.275Z,22.82
2018-08-20T03:46:43.719Z,23.05
2018-08-20T03:49:12.026Z,23.11
2018-08-20T03:51:40.654Z,23.05
2018-08-20T03:54:08.754Z,22.70
2018-08-20T03:56:37.366Z,22.74
2018-08-20T03:59:06.347Z,22.73
2018-08-20T04:01:34.536Z,22.66
2018-08-20T04:04:03.254Z,22.51
2018-08-20T04:06:32.398Z,22.58
2018-08-20T04:09:00.481Z,22.54
2018-08-20T04:11:28.551Z,22.67
2018-08-20T04:13:56.672Z,22.64
2018-08-20T04:16:24.770Z,22.63
2018-08-20T04:18:57.877Z,22.68
2018-08-20T04:21:26.121Z,22.61
2018-08-20T04:23:54.220Z,22.64
2018-08-20T04:26:22.344Z,22.59
2018-08-20T04:28:50.470Z,22.78
2018-08-20T04:31:19.031Z,22.90
2018-08-20T04:33:47.287Z,22.80
2018-08-20T04:36:15.635Z,22.83
2018-08-20T04:38:43.780Z,22.84
2018-08-20T04:41:11.852Z,22.58
2018-08-20T04:43:39.971Z,22.62
2018-08-20T04:46:08.684Z,22.68
2018-08-20T04:48:36.831Z,22.66
2018-08-20T04:51:05.155Z,22.67
2018-08-20T04:53:33.200Z,22.67
2018-08-20T04:56:01.567Z,22.49
2018-08-20T04:58:36.111Z,22.74
2018-08-20T05:01:05.150Z,22.50
2018-08-20T05:03:33.211Z,22.35
2018-08-20T05:06:01.323Z,22.22
2018-08-20T05:08:29.540Z,22.00
2018-08-20T05:10:57.659Z,22.22
2018-08-20T05:13:25.785Z,22.12
2018-08-20T05:15:53.930Z,22.00
2018-08-20T05:18:22.018Z,21.96
2018-08-20T05:20:50.119Z,22.16
2018-08-20T05:23:19.183Z,22.20
2018-08-20T05:25:47.342Z,22.11
2018-08-20T05:28:15.543Z,22.09
2018-08-20T05:30:43.719Z,22.09
2018-08-20T05:33:11.950Z,22.05
2018-08-20T05:35:40.187Z,22.01
2018-08-20T05:38:08.250Z,22.18
2018-08-20T05:40:36.399Z,22.24
2018-08-20T05:43:04.459Z,22.21
2018-08-20T05:45:33.138Z,22.34
2018-08-20T05:48:01.202Z,22.47
2018-08-20T05:50:29.556Z,22.50
2018-08-20T05:52:59.183Z,22.49
2018-08-20T05:55:27.302Z,22.16
2018-08-20T05:57:55.374Z,22.06
2018-08-20T06:00:23.596Z,22.39
2018-08-20T06:02:52.016Z,22.20
2018-08-20T06:05:20.287Z,22.15
2018-08-20T06:07:49.355Z,22.32
2018-08-20T06:10:17.384Z,22.30
2018-08-20T06:12:45.806Z,22.24
2018-08-20T06:15:14.673Z,22.56
2018-08-20T06:17:43.105Z,22.61
2018-08-20T06:20:17.477Z,22.74
2018-08-20T06:22:45.972Z,22.95
2018-08-20T06:25:14.595Z,22.63
2018-08-20T06:27:43.378Z,23.01
2018-08-20T06:30:15.717Z,22.97
2018-08-20T06:32:44.167Z,22.95
2018-08-20T06:35:12.637Z,23.02
2018-08-20T06:37:42.620Z,23.24
2018-08-20T06:40:12.683Z,23.44
2018-08-20T06:42:40.983Z,23.19
2018-08-20T06:45:13.469Z,23.05
2018-08-20T06:47:42.358Z,23.14
2018-08-20T06:50:10.469Z,23.25
2018-08-20T06:52:38.934Z,23.26
2018-08-20T06:55:07.141Z,23.19
2018-08-20T06:57:35.267Z,23.28
2018-08-20T07:00:04.516Z,23.30
2018-08-20T07:02:33.268Z,23.57
2018-08-20T07:05:01.851Z,23.27
2018-08-20T07:07:29.996Z,23.46
2018-08-20T07:09:58.118Z,23.63
2018-08-20T07:12:26.233Z,23.80
2018-08-20T07:14:55.071Z,24.08
2018-08-20T07:17:23.467Z,24.19
2018-08-20T07:19:51.526Z,24.26
2018-08-20T07:22:19.645Z,24.18
2018-08-20T07:24:47.917Z,24.24
2018-08-20T07:27:15.978Z,24.47
2018-08-20T07:29:45.000Z,24.48
2018-08-20T07:32:14.611Z,24.31
2018-08-20T07:34:43.870Z,24.52
2018-08-20T07:37:13.088Z,24.59
2018-08-20T07:39:42.907Z,24.64
2018-08-20T07:42:12.462Z,24.64
2018-08-20T07:44:41.740Z,24.64
2018-08-20T07:47:10.806Z,24.58
2018-08-20T07:49:38.910Z,24.69
2018-08-20T07:52:08.179Z,24.54
2018-08-20T07:54:37.377Z,24.64
2018-08-20T07:57:06.672Z,24.70
2018-08-20T07:59:34.823Z,24.73
2018-08-20T08:02:02.949Z,24.63
2018-08-20T08:04:31.074Z,24.86
2018-08-20T08:06:59.942Z,24.89
2018-08-20T08:09:28.303Z,25.10
2018-08-20T08:11:56.661Z,25.16
2018-08-20T08:14:24.920Z,25.31
2018-08-20T08:16:53.018Z,25.74
2018-08-20T08:19:21.123Z,26.02
2018-08-20T08:21:50.106Z,26.00
2018-08-20T08:24:18.214Z,25.53
2018-08-20T08:26:46.953Z,26.00
2018-08-20T08:29:15.180Z,26.17
2018-08-20T08:31:44.386Z,26.43
2018-08-20T08:34:12.443Z,26.25
2018-08-20T08:36:40.583Z,26.38
2018-08-20T08:39:10.466Z,26.40
2018-08-20T08:41:38.945Z,26.26
2018-08-20T08:44:08.002Z,26.54
2018-08-20T08:46:36.160Z,27.00
2018-08-20T08:49:04.262Z,27.06
2018-08-20T08:51:32.470Z,27.17
2018-08-20T08:54:03.393Z,27.28
2018-08-20T08:56:31.535Z,26.49
2018-08-20T08:58:59.649Z,27.31
2018-08-20T09:01:28.427Z,27.47
2018-08-20T09:03:56.600Z,27.17
2018-08-20T09:06:24.739Z,27.01
2018-08-20T09:08:53.256Z,27.03
2018-08-20T09:11:21.646Z,27.26
2018-08-20T09:13:50.617Z,27.18
2018-08-20T09:16:18.803Z,27.09
2018-08-20T09:18:48.099Z,27.07
2018-08-20T09:21:17.371Z,27.10
2018-08-20T09:23:45.470Z,27.05
2018-08-20T09:26:13.570Z,27.30
2018-08-20T09:28:41.685Z,27.47
2018-08-20T09:31:09.899Z,27.54
2018-08-20T09:33:38.010Z,27.55
2018-08-20T09:36:06.078Z,27.78
2018-08-20T09:38:34.199Z,27.93
2018-08-20T09:41:02.345Z,28.10
2018-08-20T09:43:30.711Z,27.82
2018-08-20T09:45:58.779Z,27.67
2018-08-20T09:48:27.232Z,27.85
2018-08-20T09:50:55.303Z,28.00
2018-08-20T09:53:23.487Z,27.93
2018-08-20T09:55:51.553Z,27.77
2018-08-20T09:58:20.481Z,28.15
2018-08-20T10:00:48.828Z,28.28
2018-08-20T10:03:17.372Z,28.65
2018-08-20T10:05:45.529Z,28.97
2018-08-20T10:08:13.751Z,28.87
2018-08-20T10:10:41.973Z,28.58
2018-08-20T10:13:10.062Z,28.55
2018-08-20T10:15:39.454Z,28.84
2018-08-20T10:18:08.281Z,29.05
2018-08-20T10:20:36.358Z,28.98
2018-08-20T10:23:04.996Z,28.98
2018-08-20T10:25:33.166Z,29.02
2018-08-20T10:28:01.276Z,28.53
2018-08-20T10:30:29.449Z,29.34
2018-08-20T10:32:57.616Z,29.17
2018-08-20T10:35:25.731Z,29.53
2018-08-20T10:37:55.979Z,29.69
2018-08-20T10:40:24.099Z,29.29
2018-08-20T10:42:54.827Z,29.58
2018-08-20T10:45:28.437Z,29.66
2018-08-20T10:47:56.733Z,29.84
2018-08-20T10:50:24.832Z,29.28
2018-08-20T10:52:52.938Z,29.38
2018-08-20T10:55:21.119Z,29.60
2018-08-20T10:57:49.433Z,29.82
2018-08-20T11:00:17.711Z,29.88
2018-08-20T11:02:45.890Z,29.48
2018-08-20T11:05:15.559Z,29.06
2018-08-20T11:07:43.638Z,29.22
2018-08-20T11:10:12.259Z,30.02
2018-08-20T11:12:40.378Z,29.70
2018-08-20T11:15:09.979Z,29.91
2018-08-20T11:17:38.322Z,30.35
2018-08-20T11:20:08.965Z,30.33
2018-08-20T11:22:37.123Z,30.55
2018-08-20T11:25:06.246Z,30.63
2018-08-20T11:27:34.495Z,31.43
2018-08-20T11:30:02.642Z,31.97
2018-08-20T11:32:30.835Z,32.16
2018-08-20T11:34:59.117Z,32.22
2018-08-20T11:37:27.375Z,31.39
2018-08-20T11:39:55.514Z,33.25
2018-08-20T11:42:23.807Z,33.12
2018-08-20T11:44:51.914Z,31.87
2018-08-20T11:47:20.911Z,33.67
2018-08-20T11:49:49.334Z,34.68
2018-08-20T11:52:19.263Z,32.68
2018-08-20T11:54:47.428Z,32.54
2018-08-20T11:57:15.560Z,31.84
2018-08-20T11:59:43.785Z,31.02
2018-08-20T12:02:11.957Z,30.72
2018-08-20T12:04:40.158Z,30.94
2018-08-20T12:07:09.580Z,31.02
2018-08-20T12:09:38.103Z,31.18
2018-08-20T12:12:06.778Z,31.43
2018-08-20T12:14:35.381Z,31.55
2018-08-20T12:17:03.525Z,31.80
2018-08-20T12:19:31.600Z,31.82
2018-08-20T12:22:01.596Z,32.91
2018-08-20T12:24:29.778Z,35.76
2018-08-20T12:26:57.951Z,35.29
2018-08-20T12:29:27.189Z,34.94
2018-08-20T12:31:55.436Z,36.94
2018-08-20T12:34:24.710Z,36.19
2018-08-20T12:36:52.822Z,37.69
2018-08-20T12:39:21.681Z,35.92
2018-08-20T12:41:50.258Z,35.42
2018-08-20T12:44:18.657Z,33.79
2018-08-20T12:46:46.846Z,32.67
2018-08-20T12:49:14.962Z,33.89
2018-08-20T12:51:43.302Z,35.32
2018-08-20T12:54:11.548Z,39.00
2018-08-20T12:56:39.787Z,39.94
2018-08-20T12:59:09.411Z,39.15
2018-08-20T13:01:37.667Z,39.14
2018-08-20T13:04:06.215Z,43.59
2018-08-20T13:06:34.477Z,41.20
2018-08-20T13:09:02.761Z,35.72
2018-08-20T13:11:31.009Z,36.61
2018-08-20T13:13:59.326Z,35.22
2018-08-20T13:16:27.573Z,35.15
2018-08-20T13:18:55.873Z,34.65
2018-08-20T13:21:25.178Z,33.96
2018-08-20T13:23:53.350Z,33.45
2018-08-20T13:26:21.482Z,33.37
2018-08-20T13:28:49.691Z,33.58
2018-08-20T13:31:18.800Z,33.67
2018-08-20T13:33:47.156Z,33.58
2018-08-20T13:36:17.048Z,33.65
2018-08-20T13:38:45.475Z,36.53
2018-08-20T13:41:13.625Z,36.61
2018-08-20T13:43:41.788Z,37.50
2018-08-20T13:46:10.229Z,37.41
2018-08-20T13:48:38.443Z,35.46
2018-08-20T13:51:06.781Z,34.00
2018-08-20T13:53:34.896Z,34.22
2018-08-20T13:56:02.985Z,34.05
2018-08-20T13:58:31.148Z,34.66
2018-08-20T14:00:59.401Z,34.36
2018-08-20T14:03:27.513Z,33.59
2018-08-20T14:05:57.006Z,33.28
2018-08-20T14:08:25.227Z,33.32
2018-08-20T14:10:53.495Z,34.04
2018-08-20T14:13:21.718Z,33.90
2018-08-20T14:15:49.863Z,33.44
2018-08-20T14:18:18.073Z,33.32
2018-08-20T14:20:57.056Z,33.91
2018-08-20T14:23:26.543Z,34.65
2018-08-20T14:25:54.789Z,35.47
2018-08-20T14:28:23.661Z,36.29
2018-08-20T14:30:51.758Z,35.00
2018-08-20T14:33:19.862Z,35.93
2018-08-20T14:35:48.382Z,35.66
2018-08-20T14:38:16.837Z,35.38
2018-08-20T14:40:44.980Z,34.68
2018-08-20T14:43:13.167Z,34.18
2018-08-20T14:45:46.643Z,35.36
2018-08-20T14:48:14.928Z,35.22
2018-08-20T14:50:48.105Z,35.50
2018-08-20T14:53:16.192Z,38.74
2018-08-20T14:55:44.412Z,35.31
2018-08-20T14:58:12.498Z,35.92
2018-08-20T15:00:40.686Z,34.96
2018-08-20T15:03:08.915Z,35.06
2018-08-20T15:05:37.956Z,34.61
2018-08-20T15:08:06.223Z,34.21
2018-08-20T15:10:34.280Z,34.46
2018-08-20T15:13:02.528Z,34.45
2018-08-20T15:15:30.763Z,33.94
2018-08-20T15:18:01.026Z,33.51
2018-08-20T15:20:29.108Z,33.23
2018-08-20T15:22:57.430Z,33.18
2018-08-20T15:25:25.479Z,33.99
2018-08-20T15:27:54.779Z,33.29
2018-08-20T15:30:22.984Z,34.95
2018-08-20T15:32:52.023Z,34.94
2018-08-20T15:35:20.154Z,33.89
2018-08-20T15:37:48.739Z,33.61
2018-08-20T15:40:16.858Z,33.65
2018-08-20T15:42:46.119Z,33.42
2018-08-20T15:45:14.227Z,32.99
2018-08-20T15:47:42.730Z,33.29
2018-08-20T15:50:12.168Z,35.95
2018-08-20T15:52:40.375Z,39.08
2018-08-20T15:55:08.571Z,38.09
2018-08-20T15:57:36.882Z,41.00
2018-08-20T16:00:06.614Z,40.38
2018-08-20T16:02:34.812Z,36.64
2018-08-20T16:05:02.893Z,35.45
2018-08-20T16:07:31.078Z,34.76
2018-08-20T16:10:01.992Z,38.17
2018-08-20T16:12:30.216Z,40.44
2018-08-20T16:14:58.344Z,38.93
2018-08-20T16:17:27.207Z,38.89
2018-08-20T16:19:55.648Z,39.43
2018-08-20T16:22:23.999Z,38.17
2018-08-20T16:24:58.368Z,39.71
2018-08-20T16:27:26.511Z,41.36
2018-08-20T16:29:54.706Z,41.29
2018-08-20T16:32:22.798Z,41.99
2018-08-20T16:34:50.970Z,42.24
2018-08-20T16:37:20.778Z,40.13
2018-08-20T16:39:48.901Z,34.77
2018-08-20T16:42:17.870Z,33.99
2018-08-20T16:44:47.346Z,33.83
2018-08-20T16:47:17.989Z,33.63
2018-08-20T16:49:47.748Z,33.31
2018-08-20T16:52:16.053Z,32.95
2018-08-20T16:54:44.289Z,32.92
2018-08-20T16:57:12.553Z,32.60
2018-08-20T16:59:41.010Z,32.14
2018-08-20T17:02:14.632Z,31.94
2018-08-20T17:04:42.819Z,31.86
2018-08-20T17:07:11.462Z,31.72
2018-08-20T17:09:41.721Z,32.04
2018-08-20T17:12:09.920Z,31.94
2018-08-20T17:14:39.485Z,31.99
2018-08-20T17:17:08.343Z,31.94
2018-08-20T17:19:36.474Z,31.87
2018-08-20T17:22:04.615Z,31.85
2018-08-20T17:24:40.221Z,31.64
2018-08-20T17:27:10.079Z,31.36
2018-08-20T17:29:38.435Z,30.90
2018-08-20T17:32:08.675Z,31.14
2018-08-20T17:34:41.230Z,31.05
2018-08-20T17:37:09.595Z,30.81
2018-08-20T17:39:54.386Z,30.69
2018-08-20T17:42:22.681Z,30.51
2018-08-20T17:44:52.183Z,30.63
2018-08-20T17:47:24.563Z,30.53
2018-08-20T17:49:53.558Z,30.37
2018-08-20T17:52:26.896Z,30.39
2018-08-20T17:54:55.422Z,30.15
2018-08-20T17:57:23.507Z,30.21
2018-08-20T17:59:54.023Z,29.99
2018-08-20T18:07:15.484Z,29.92
2018-08-20T18:09:43.550Z,29.77
2018-08-20T18:12:11.714Z,29.78
2018-08-20T18:14:41.093Z,29.84
2018-08-20T18:17:09.843Z,29.74
2018-08-20T18:19:37.950Z,29.81
2018-08-20T18:22:06.041Z,29.55
2018-08-20T18:24:34.169Z,29.35
2018-08-20T18:27:02.397Z,29.38
2018-08-20T18:29:30.610Z,29.34
2018-08-20T18:32:00.388Z,29.39
2018-08-20T18:34:28.560Z,29.39
2018-08-20T18:36:56.648Z,29.43
2018-08-20T18:39:24.905Z,29.40
2018-08-20T18:42:03.980Z,29.27
2018-08-20T18:44:32.245Z,29.27
2018-08-20T18:47:00.424Z,29.09
2018-08-20T18:49:29.182Z,29.20
2018-08-20T18:52:03.726Z,29.16
2018-08-20T18:54:39.682Z,29.04
2018-08-20T18:57:10.686Z,28.99
2018-08-20T18:59:40.012Z,29.03
2018-08-20T19:02:10.575Z,28.99
2018-08-20T19:04:46.885Z,28.90
2018-08-20T19:07:15.892Z,28.91
2018-08-20T19:09:49.558Z,28.92
2018-08-20T19:12:17.894Z,28.82
2018-08-20T19:14:46.163Z,28.85
2018-08-20T19:17:18.557Z,28.82
2018-08-20T19:19:48.147Z,28.72
2018-08-20T19:22:21.679Z,28.73
2018-08-20T19:24:49.863Z,28.62
2018-08-20T19:27:17.917Z,28.76
2018-08-20T19:29:46.593Z,28.63
2018-08-20T19:32:16.094Z,28.64
2018-08-20T19:34:44.219Z,28.62
2018-08-20T19:37:12.373Z,28.46
2018-08-20T19:39:40.598Z,28.37
2018-08-20T19:42:08.834Z,28.38
2018-08-20T19:44:36.984Z,28.41
2018-08-20T19:47:05.102Z,28.42
2018-08-20T19:49:33.270Z,28.27
2018-08-20T19:52:01.606Z,28.23
2018-08-20T19:54:31.838Z,28.30
2018-08-20T19:57:00.106Z,28.13
2018-08-20T19:59:33.673Z,28.12
2018-08-20T20:02:02.256Z,28.13
2018-08-20T20:04:31.778Z,28.13
2018-08-20T20:07:00.097Z,28.11
2018-08-20T20:09:29.214Z,28.13
2018-08-20T20:11:57.715Z,28.08
2018-08-20T20:14:28.682Z,28.08
2018-08-20T20:16:56.766Z,28.06
2018-08-20T20:19:25.391Z,28.05
2018-08-20T20:21:54.421Z,28.02
2018-08-20T20:24:23.367Z,27.96
2018-08-20T20:26:51.443Z,27.94
2018-08-20T20:29:19.885Z,28.00
2018-08-20T20:31:49.303Z,27.92
2018-08-20T20:34:19.347Z,27.79
2018-08-20T20:36:48.035Z,27.82
2018-08-20T20:39:16.988Z,27.80
2018-08-20T20:41:45.538Z,27.72
2018-08-20T20:44:14.148Z,27.80
2018-08-20T20:46:42.487Z,27.80
2018-08-20T20:49:12.773Z,27.79
2018-08-20T20:51:41.023Z,27.72
2018-08-20T20:54:09.303Z,27.65
2018-08-20T20:56:38.980Z,27.63
2018-08-20T20:59:08.449Z,27.74
2018-08-20T21:01:36.742Z,27.70
2018-08-20T21:04:09.482Z,27.65
2018-08-20T21:06:40.833Z,27.53
2018-08-20T21:09:10.225Z,27.57
2018-08-20T21:11:38.505Z,27.63
2018-08-20T21:14:06.668Z,27.56
2018-08-20T21:16:34.896Z,27.54
2018-08-20T21:19:03.794Z,27.47
2018-08-20T21:21:33.944Z,27.36
2018-08-20T21:24:04.447Z,27.34
2018-08-20T21:26:32.747Z,27.34
2018-08-20T21:29:01.308Z,27.37
2018-08-20T21:31:32.030Z,27.43
2018-08-20T21:34:03.588Z,27.29
2018-08-20T21:36:31.619Z,27.13
2018-08-20T21:38:59.723Z,27.19
2018-08-20T21:41:29.922Z,27.25
2018-08-20T21:43:59.867Z,27.26
2018-08-20T21:46:28.256Z,27.16
2018-08-20T21:48:56.613Z,27.23
2018-08-20T21:51:27.244Z,27.21
2018-08-20T21:53:57.206Z,27.08
2018-08-20T21:56:29.935Z,27.17
2018-08-20T21:58:58.061Z,27.12
2018-08-20T22:01:27.430Z,26.97
2018-08-20T22:03:55.970Z,27.09
2018-08-20T22:06:26.839Z,27.10
2018-08-20T22:08:55.296Z,26.99
2018-08-20T22:11:25.568Z,26.96
2018-08-20T22:13:53.662Z,26.94
2018-08-20T22:16:24.972Z,26.87
2018-08-20T22:18:56.056Z,26.74
2018-08-20T22:21:24.773Z,26.75
2018-08-20T22:23:59.246Z,26.83
2018-08-20T22:26:28.614Z,26.76
2018-08-20T22:29:03.414Z,26.77
2018-08-20T22:31:31.813Z,26.66
2018-08-20T22:34:06.414Z,26.74
2018-08-20T22:36:34.727Z,26.68
2018-08-20T22:39:05.462Z,26.71
2018-08-20T22:41:33.577Z,26.67
2018-08-20T22:44:01.765Z,26.63
2018-08-20T22:46:29.875Z,26.60
2018-08-20T22:49:00.117Z,26.59
2018-08-20T22:51:29.217Z,26.51
2018-08-20T22:53:58.853Z,26.46
2018-08-20T22:56:32.707Z,26.40
2018-08-20T22:59:04.398Z,26.42
2018-08-20T23:01:32.488Z,26.37
2018-08-20T23:04:01.527Z,26.37
2018-08-20T23:06:30.124Z,26.43
2018-08-20T23:08:58.548Z,26.26
2018-08-20T23:11:41.754Z,26.26
2018-08-20T23:14:11.478Z,26.34
2018-08-20T23:16:40.869Z,26.38
2018-08-20T23:19:09.660Z,26.37
2018-08-20T23:21:40.996Z,26.36
2018-08-20T23:24:09.593Z,26.14
2018-08-20T23:26:37.859Z,26.06
2018-08-20T23:29:07.630Z,25.99
2018-08-20T23:31:37.235Z,26.16
2018-08-20T23:34:08.678Z,26.19
2018-08-20T23:36:37.304Z,26.13
2018-08-20T23:39:08.815Z,26.20
2018-08-20T23:41:37.141Z,26.20
2018-08-20T23:44:06.280Z,26.18
2018-08-20T23:46:44.688Z,26.20
2018-08-20T23:49:14.302Z,26.18
2018-08-20T23:51:42.566Z,26.21
2018-08-20T23:54:12.752Z,26.06
2018-08-20T23:56:42.242Z,25.98
2018-08-20T23:59:11.372Z,26.12
